WLW2296 VYYY-VTSG
Flight info
| Callsign | WLW2296 |
|---|---|
| Flight time | N/A |
| Altitude | 41000 |
| Route | POMEP1A POXEM M626 MENEX/N0486F400 G458 SAPUD W32 NULMA NULMA1E |
| Aircraft | A359/H-SDE2E3GHIJ3J4J5LM1ORWXY/LB1D1 |
Departure
| Time | N/A |
|---|---|
| Airport | Yangon International Airport (VYYY) |
Arrival
| Time | 2026-05-06 00:50 |
|---|---|
| Airport | Krabi International Airport (VTSG) |
| Time | Latitude | Longitude | Altitude | Speed | Heading |
|---|---|---|---|---|---|
| 2026-05-05 23:48 | 13.13303 | 98.71567 | 40870 ft | 496 kts | 153° |
| 2026-05-05 23:48 | 13.10237 | 98.73187 | 40868 ft | 496 kts | 153° |
| 2026-05-05 23:49 | 13.04107 | 98.76427 | 40869 ft | 496 kts | 153° |
| 2026-05-05 23:49 | 12.97976 | 98.79664 | 40878 ft | 496 kts | 153° |
| 2026-05-05 23:50 | 12.91846 | 98.82898 | 40874 ft | 496 kts | 153° |
| 2026-05-05 23:50 | 12.85709 | 98.86135 | 40876 ft | 495 kts | 153° |
| 2026-05-05 23:51 | 12.79581 | 98.89368 | 40856 ft | 495 kts | 153° |
| 2026-05-05 23:51 | 12.73455 | 98.92597 | 40873 ft | 496 kts | 153° |
| 2026-05-05 23:52 | 12.67317 | 98.95833 | 40862 ft | 496 kts | 153° |
| 2026-05-05 23:52 | 12.61223 | 98.99041 | 40878 ft | 496 kts | 153° |
| 2026-05-05 23:53 | 12.55082 | 99.02271 | 40859 ft | 496 kts | 153° |
| 2026-05-05 23:53 | 12.48948 | 99.05497 | 40861 ft | 496 kts | 153° |
| 2026-05-05 23:54 | 12.43806 | 99.08200 | 40861 ft | 496 kts | 153° |
| 2026-05-05 23:54 | 12.37668 | 99.11423 | 40861 ft | 496 kts | 153° |
| 2026-05-05 23:55 | 12.31531 | 99.14645 | 40860 ft | 496 kts | 153° |
| 2026-05-05 23:55 | 12.25397 | 99.17864 | 40860 ft | 496 kts | 153° |
| 2026-05-05 23:56 | 12.19260 | 99.21082 | 40860 ft | 496 kts | 154° |
| 2026-05-05 23:56 | 12.13163 | 99.24278 | 40859 ft | 496 kts | 153° |
| 2026-05-05 23:57 | 12.07027 | 99.27492 | 40862 ft | 496 kts | 153° |
| 2026-05-05 23:57 | 12.00896 | 99.30704 | 40860 ft | 495 kts | 153° |
| 2026-05-05 23:58 | 11.94770 | 99.33909 | 40861 ft | 494 kts | 153° |
| 2026-05-05 23:58 | 11.88648 | 99.37113 | 40861 ft | 494 kts | 153° |
| 2026-05-05 23:59 | 11.82524 | 99.40314 | 40860 ft | 494 kts | 154° |
| 2026-05-05 23:59 | 11.76401 | 99.43514 | 40860 ft | 494 kts | 153° |
| 2026-05-06 00:00 | 11.70277 | 99.46713 | 40861 ft | 494 kts | 153° |
| 2026-05-06 00:00 | 11.64153 | 99.49910 | 40861 ft | 494 kts | 154° |
| 2026-05-06 00:01 | 11.58030 | 99.53119 | 40861 ft | 495 kts | 153° |
| 2026-05-06 00:01 | 11.51921 | 99.56338 | 40859 ft | 494 kts | 153° |
| 2026-05-06 00:02 | 11.45813 | 99.59556 | 40860 ft | 494 kts | 153° |
| 2026-05-06 00:02 | 11.39709 | 99.62768 | 40861 ft | 494 kts | 153° |
| 2026-05-06 00:03 | 11.33605 | 99.65978 | 40860 ft | 494 kts | 153° |
| 2026-05-06 00:03 | 11.27496 | 99.69188 | 40860 ft | 494 kts | 153° |
| 2026-05-06 00:04 | 11.21416 | 99.72348 | 40859 ft | 494 kts | 156° |
| 2026-05-06 00:04 | 11.14888 | 99.74367 | 40860 ft | 491 kts | 173° |
| 2026-05-06 00:05 | 11.08111 | 99.74199 | 40861 ft | 488 kts | 192° |
| 2026-05-06 00:05 | 11.04819 | 99.73374 | 40857 ft | 487 kts | 196° |
| 2026-05-06 00:06 | 10.98318 | 99.71398 | 40860 ft | 488 kts | 198° |
| 2026-05-06 00:06 | 10.91845 | 99.69302 | 40860 ft | 488 kts | 198° |
| 2026-05-06 00:07 | 10.85363 | 99.67217 | 40859 ft | 488 kts | 198° |
| 2026-05-06 00:07 | 10.78875 | 99.65169 | 40860 ft | 488 kts | 197° |
| 2026-05-06 00:08 | 10.72381 | 99.63135 | 40859 ft | 488 kts | 197° |
| 2026-05-06 00:08 | 10.65891 | 99.61106 | 40860 ft | 488 kts | 197° |
| 2026-05-06 00:09 | 10.59396 | 99.59076 | 40860 ft | 488 kts | 197° |
| 2026-05-06 00:09 | 10.52903 | 99.57046 | 40860 ft | 488 kts | 197° |
| 2026-05-06 00:10 | 10.46406 | 99.55014 | 40860 ft | 488 kts | 197° |
| 2026-05-06 00:10 | 10.39911 | 99.52984 | 40860 ft | 488 kts | 197° |
| 2026-05-06 00:11 | 10.33419 | 99.50956 | 40860 ft | 488 kts | 197° |
| 2026-05-06 00:11 | 10.26926 | 99.48930 | 40860 ft | 488 kts | 197° |
| 2026-05-06 00:12 | 10.20434 | 99.46904 | 40860 ft | 488 kts | 197° |
| 2026-05-06 00:12 | 10.13990 | 99.44894 | 40859 ft | 488 kts | 197° |
| 2026-05-06 00:13 | 10.07500 | 99.42869 | 40859 ft | 488 kts | 197° |
| 2026-05-06 00:13 | 10.01011 | 99.40844 | 40860 ft | 488 kts | 197° |
| 2026-05-06 00:14 | 9.94519 | 99.38820 | 40865 ft | 488 kts | 197° |
| 2026-05-06 00:14 | 9.88024 | 99.36797 | 40864 ft | 488 kts | 197° |
| 2026-05-06 00:15 | 9.81526 | 99.34776 | 40860 ft | 488 kts | 197° |
| 2026-05-06 00:15 | 9.78292 | 99.33770 | 40571 ft | 484 kts | 197° |
| 2026-05-06 00:15 | 9.75076 | 99.32769 | 39905 ft | 483 kts | 197° |
| 2026-05-06 00:15 | 9.71859 | 99.31769 | 39220 ft | 484 kts | 197° |
| 2026-05-06 00:16 | 9.68641 | 99.30768 | 38816 ft | 486 kts | 197° |
| 2026-05-06 00:16 | 9.65395 | 99.29758 | 38568 ft | 490 kts | 197° |
| 2026-05-06 00:16 | 9.62145 | 99.28748 | 38061 ft | 487 kts | 197° |
| 2026-05-06 00:16 | 9.58910 | 99.27744 | 37411 ft | 486 kts | 197° |
| 2026-05-06 00:17 | 9.55676 | 99.26738 | 36725 ft | 486 kts | 197° |
| 2026-05-06 00:17 | 9.52438 | 99.25732 | 36022 ft | 486 kts | 197° |
| 2026-05-06 00:17 | 9.49196 | 99.24729 | 35177 ft | 490 kts | 197° |
| 2026-05-06 00:17 | 9.45928 | 99.23714 | 34373 ft | 491 kts | 197° |
| 2026-05-06 00:18 | 9.42658 | 99.22697 | 33529 ft | 493 kts | 196° |
| 2026-05-06 00:18 | 9.39370 | 99.21675 | 32657 ft | 495 kts | 196° |
| 2026-05-06 00:18 | 9.36065 | 99.20649 | 31763 ft | 498 kts | 196° |
| 2026-05-06 00:18 | 9.32747 | 99.19619 | 30842 ft | 500 kts | 196° |
| 2026-05-06 00:19 | 9.29420 | 99.18586 | 30090 ft | 498 kts | 196° |
| 2026-05-06 00:19 | 9.26120 | 99.17561 | 29436 ft | 495 kts | 196° |
| 2026-05-06 00:19 | 9.22841 | 99.16544 | 28769 ft | 491 kts | 196° |
| 2026-05-06 00:19 | 9.19588 | 99.15534 | 28114 ft | 487 kts | 196° |
| 2026-05-06 00:20 | 9.16359 | 99.14535 | 27450 ft | 483 kts | 196° |
| 2026-05-06 00:20 | 9.13136 | 99.13645 | 26788 ft | 478 kts | 190° |
| 2026-05-06 00:20 | 9.09877 | 99.13019 | 26110 ft | 475 kts | 189° |
| 2026-05-06 00:20 | 9.06631 | 99.12469 | 25460 ft | 470 kts | 188° |
| 2026-05-06 00:21 | 9.03451 | 99.11978 | 24826 ft | 467 kts | 187° |
| 2026-05-06 00:21 | 9.00267 | 99.11511 | 24192 ft | 459 kts | 187° |
| 2026-05-06 00:21 | 8.97121 | 99.11042 | 23560 ft | 453 kts | 188° |
| 2026-05-06 00:21 | 8.94001 | 99.10565 | 22929 ft | 452 kts | 187° |
| 2026-05-06 00:22 | 8.90901 | 99.10092 | 22304 ft | 448 kts | 188° |
| 2026-05-06 00:22 | 8.87834 | 99.09618 | 21674 ft | 443 kts | 188° |
| 2026-05-06 00:22 | 8.84802 | 99.09148 | 21040 ft | 439 kts | 187° |
| 2026-05-06 00:22 | 8.81801 | 99.08683 | 20408 ft | 434 kts | 187° |
| 2026-05-06 00:23 | 8.78831 | 99.08226 | 19749 ft | 429 kts | 187° |
| 2026-05-06 00:23 | 8.75886 | 99.07774 | 19106 ft | 425 kts | 187° |
| 2026-05-06 00:23 | 8.72983 | 99.07328 | 18475 ft | 420 kts | 187° |
| 2026-05-06 00:23 | 8.70105 | 99.06884 | 17831 ft | 416 kts | 187° |
| 2026-05-06 00:24 | 8.67259 | 99.06443 | 17191 ft | 411 kts | 187° |
| 2026-05-06 00:24 | 8.64442 | 99.06008 | 16558 ft | 407 kts | 187° |
| 2026-05-06 00:24 | 8.61652 | 99.05579 | 15918 ft | 404 kts | 187° |
| 2026-05-06 00:24 | 8.58920 | 99.05157 | 15298 ft | 400 kts | 187° |
| 2026-05-06 00:25 | 8.56179 | 99.04735 | 14666 ft | 397 kts | 187° |
| 2026-05-06 00:25 | 8.53451 | 99.04432 | 14027 ft | 391 kts | 179° |
| 2026-05-06 00:25 | 8.50783 | 99.04785 | 13394 ft | 385 kts | 162° |
| 2026-05-06 00:25 | 8.48293 | 99.05723 | 12769 ft | 380 kts | 155° |
| 2026-05-06 00:26 | 8.45876 | 99.06773 | 12159 ft | 377 kts | 155° |
| 2026-05-06 00:26 | 8.43480 | 99.07824 | 11547 ft | 373 kts | 155° |
| 2026-05-06 00:26 | 8.41106 | 99.08859 | 10935 ft | 370 kts | 155° |
| 2026-05-06 00:26 | 8.38760 | 99.09878 | 10515 ft | 361 kts | 155° |
| 2026-05-06 00:27 | 8.36510 | 99.10849 | 10382 ft | 342 kts | 155° |
| 2026-05-06 00:27 | 8.34367 | 99.11774 | 10246 ft | 325 kts | 155° |
| 2026-05-06 00:27 | 8.32329 | 99.12652 | 10113 ft | 311 kts | 155° |
| 2026-05-06 00:27 | 8.30389 | 99.13487 | 9978 ft | 296 kts | 154° |
| 2026-05-06 00:28 | 8.28561 | 99.14276 | 9846 ft | 284 kts | 154° |
| 2026-05-06 00:28 | 8.26744 | 99.15059 | 9722 ft | 288 kts | 154° |
| 2026-05-06 00:28 | 8.24889 | 99.15863 | 9511 ft | 291 kts | 154° |
| 2026-05-06 00:28 | 8.23025 | 99.16666 | 9115 ft | 290 kts | 154° |
| 2026-05-06 00:29 | 8.21174 | 99.17466 | 8849 ft | 290 kts | 154° |
| 2026-05-06 00:29 | 8.19326 | 99.18267 | 8413 ft | 289 kts | 155° |
| 2026-05-06 00:29 | 8.17470 | 99.19063 | 7965 ft | 289 kts | 154° |
| 2026-05-06 00:29 | 8.15633 | 99.19853 | 7582 ft | 285 kts | 154° |
| 2026-05-06 00:30 | 8.13810 | 99.20635 | 7218 ft | 284 kts | 155° |
| 2026-05-06 00:30 | 8.11999 | 99.21413 | 6847 ft | 282 kts | 155° |
| 2026-05-06 00:30 | 8.10198 | 99.22188 | 6482 ft | 281 kts | 155° |
| 2026-05-06 00:30 | 8.08410 | 99.22955 | 6123 ft | 278 kts | 155° |
| 2026-05-06 00:31 | 8.06599 | 99.23597 | 5833 ft | 274 kts | 167° |
| 2026-05-06 00:31 | 8.04736 | 99.23476 | 5575 ft | 270 kts | 198° |
| 2026-05-06 00:31 | 8.03203 | 99.22415 | 5219 ft | 270 kts | 225° |
| 2026-05-06 00:31 | 8.01987 | 99.20982 | 4846 ft | 269 kts | 230° |
| 2026-05-06 00:32 | 8.00820 | 99.19515 | 4482 ft | 266 kts | 230° |
| 2026-05-06 00:32 | 7.99664 | 99.18068 | 4108 ft | 265 kts | 230° |
| 2026-05-06 00:32 | 7.98503 | 99.16636 | 3734 ft | 262 kts | 230° |
| 2026-05-06 00:32 | 7.97353 | 99.15214 | 3359 ft | 261 kts | 230° |
| 2026-05-06 00:33 | 7.96220 | 99.13806 | 3115 ft | 253 kts | 231° |
| 2026-05-06 00:33 | 7.95472 | 99.12274 | 3032 ft | 238 kts | 260° |
| 2026-05-06 00:33 | 7.95650 | 99.10716 | 2936 ft | 222 kts | 296° |
| 2026-05-06 00:33 | 7.96565 | 99.09553 | 2860 ft | 206 kts | 320° |
| 2026-05-06 00:34 | 7.97652 | 99.08643 | 2792 ft | 202 kts | 323° |
| 2026-05-06 00:34 | 7.98750 | 99.07765 | 2712 ft | 201 kts | 323° |
| 2026-05-06 00:34 | 7.99847 | 99.06886 | 2622 ft | 201 kts | 323° |
| 2026-05-06 00:34 | 8.00935 | 99.06004 | 2539 ft | 200 kts | 323° |
| 2026-05-06 00:35 | 8.02017 | 99.05119 | 2470 ft | 200 kts | 322° |
| 2026-05-06 00:35 | 8.03096 | 99.04239 | 2401 ft | 200 kts | 323° |
| 2026-05-06 00:35 | 8.04180 | 99.03361 | 2364 ft | 200 kts | 323° |
| 2026-05-06 00:35 | 8.05258 | 99.02479 | 2430 ft | 200 kts | 323° |
| 2026-05-06 00:36 | 8.06335 | 99.01591 | 2489 ft | 200 kts | 322° |
| 2026-05-06 00:36 | 8.07417 | 99.00710 | 2492 ft | 199 kts | 324° |
| 2026-05-06 00:36 | 8.08644 | 99.00092 | 2493 ft | 195 kts | 348° |
| 2026-05-06 00:36 | 8.09973 | 99.00092 | 2493 ft | 192 kts | 19° |
| 2026-05-06 00:37 | 8.11037 | 99.00842 | 2495 ft | 189 kts | 56° |
| 2026-05-06 00:37 | 8.11425 | 99.02094 | 2503 ft | 190 kts | 90° |
| 2026-05-06 00:37 | 8.11342 | 99.03432 | 2498 ft | 192 kts | 95° |
| 2026-05-06 00:37 | 8.11195 | 99.04777 | 2499 ft | 193 kts | 97° |
| 2026-05-06 00:38 | 8.11005 | 99.06114 | 2498 ft | 193 kts | 98° |
| 2026-05-06 00:38 | 8.10771 | 99.07445 | 2495 ft | 193 kts | 101° |
| 2026-05-06 00:38 | 8.10484 | 99.08772 | 2491 ft | 193 kts | 103° |
| 2026-05-06 00:38 | 8.10143 | 99.10062 | 2496 ft | 193 kts | 105° |
| 2026-05-06 00:39 | 8.09744 | 99.11351 | 2494 ft | 193 kts | 108° |
| 2026-05-06 00:39 | 8.09292 | 99.12623 | 2497 ft | 193 kts | 111° |
| 2026-05-06 00:39 | 8.08762 | 99.13868 | 2495 ft | 193 kts | 116° |
| 2026-05-06 00:39 | 8.08090 | 99.15041 | 2494 ft | 193 kts | 123° |
| 2026-05-06 00:40 | 8.07326 | 99.16161 | 2496 ft | 195 kts | 124° |
| 2026-05-06 00:40 | 8.06541 | 99.17278 | 2495 ft | 194 kts | 124° |
| 2026-05-06 00:40 | 8.06135 | 99.18008 | 2498 ft | 194 kts | 114° |
| 2026-05-06 00:41 | 8.05935 | 99.18455 | 2501 ft | 194 kts | 113° |
| 2026-05-06 00:41 | 8.05404 | 99.19706 | 2498 ft | 194 kts | 112° |
| 2026-05-06 00:41 | 8.05122 | 99.20560 | 2502 ft | 194 kts | 104° |
| 2026-05-06 00:41 | 8.04605 | 99.22288 | 2487 ft | 195 kts | 120° |
| 2026-05-06 00:42 | 8.04022 | 99.22967 | 2486 ft | 195 kts | 144° |
| 2026-05-06 00:42 | 8.02731 | 99.23239 | 2493 ft | 196 kts | 192° |
| 2026-05-06 00:42 | 8.01434 | 99.22074 | 2511 ft | 197 kts | 249° |
| 2026-05-06 00:42 | 8.00935 | 99.20763 | 2502 ft | 202 kts | 248° |
| 2026-05-06 00:43 | 8.00331 | 99.19499 | 2486 ft | 193 kts | 241° |
| 2026-05-06 00:43 | 7.99883 | 99.18736 | 2507 ft | 183 kts | 238° |
| 2026-05-06 00:43 | 7.99208 | 99.17707 | 2509 ft | 168 kts | 236° |
| 2026-05-06 00:43 | 7.98563 | 99.16802 | 2491 ft | 155 kts | 233° |
| 2026-05-06 00:44 | 7.97919 | 99.15958 | 2491 ft | 150 kts | 230° |
| 2026-05-06 00:44 | 7.97282 | 99.15148 | 2488 ft | 145 kts | 232° |
| 2026-05-06 00:44 | 7.96648 | 99.14350 | 2491 ft | 146 kts | 231° |
| 2026-05-06 00:44 | 7.96029 | 99.13540 | 2494 ft | 146 kts | 236° |
| 2026-05-06 00:45 | 7.95598 | 99.12616 | 2512 ft | 146 kts | 254° |
| 2026-05-06 00:45 | 7.95500 | 99.11607 | 2499 ft | 144 kts | 276° |
| 2026-05-06 00:45 | 7.95764 | 99.10634 | 2496 ft | 144 kts | 297° |
| 2026-05-06 00:45 | 7.96355 | 99.09835 | 2494 ft | 142 kts | 319° |
| 2026-05-06 00:46 | 7.97118 | 99.09204 | 2499 ft | 142 kts | 326° |
| 2026-05-06 00:46 | 7.97896 | 99.08582 | 2498 ft | 143 kts | 324° |
| 2026-05-06 00:46 | 7.98667 | 99.07945 | 2496 ft | 143 kts | 323° |
| 2026-05-06 00:46 | 7.99431 | 99.07308 | 2498 ft | 142 kts | 323° |
| 2026-05-06 00:47 | 8.00203 | 99.06665 | 2351 ft | 145 kts | 323° |
| 2026-05-06 00:47 | 8.00974 | 99.06020 | 2135 ft | 142 kts | 323° |
| 2026-05-06 00:47 | 8.01733 | 99.05393 | 1945 ft | 141 kts | 323° |
| 2026-05-06 00:47 | 8.02488 | 99.04768 | 1750 ft | 140 kts | 323° |
| 2026-05-06 00:48 | 8.03240 | 99.04142 | 1546 ft | 140 kts | 323° |
| 2026-05-06 00:48 | 8.03991 | 99.03520 | 1355 ft | 139 kts | 322° |
| 2026-05-06 00:48 | 8.04736 | 99.02902 | 1153 ft | 138 kts | 322° |
| 2026-05-06 00:48 | 8.05478 | 99.02287 | 954 ft | 137 kts | 322° |
| 2026-05-06 00:49 | 8.06220 | 99.01673 | 767 ft | 139 kts | 322° |
| 2026-05-06 00:49 | 8.06965 | 99.01053 | 574 ft | 139 kts | 321° |
| 2026-05-06 00:49 | 8.07711 | 99.00434 | 377 ft | 139 kts | 322° |
| 2026-05-06 00:49 | 8.08439 | 98.99830 | 203 ft | 136 kts | 321° |
| 2026-05-06 00:50 | 8.09162 | 98.99232 | 106 ft | 127 kts | 323° |
| 2026-05-06 00:50 | 8.09755 | 98.98745 | 105 ft | 90 kts | 320° |
| 2026-05-06 00:50 | 8.09984 | 98.98554 | 104 ft | 20 kts | 320° |
| 2026-05-06 00:50 | 8.10060 | 98.98490 | 105 ft | 15 kts | 320° |
| 2026-05-06 00:51 | 8.10095 | 98.98419 | 105 ft | 1 kts | 258° |
| 2026-05-06 00:51 | 8.10093 | 98.98413 | 104 ft | 6 kts | 255° |
| 2026-05-06 00:51 | 8.10059 | 98.98363 | 105 ft | 8 kts | 230° |
| 2026-05-06 00:51 | 8.10021 | 98.98317 | 107 ft | 10 kts | 230° |
| 2026-05-06 00:52 | 8.09976 | 98.98275 | 105 ft | 10 kts | 212° |
| 2026-05-06 00:52 | 8.09915 | 98.98228 | 108 ft | 12 kts | 227° |
| 2026-05-06 00:52 | 8.09890 | 98.98200 | 106 ft | 0 kts | 230° |